createdAt,value
2022-10-30T00:01:14.287Z,12.80
2022-10-30T00:03:41.333Z,12.70
2022-10-30T00:06:08.610Z,12.70
2022-10-30T00:08:35.712Z,12.60
2022-10-30T00:11:12.213Z,12.50
2022-10-30T00:13:39.467Z,12.50
2022-10-30T00:16:08.506Z,12.30
2022-10-30T00:18:37.222Z,12.30
2022-10-30T00:21:11.577Z,12.30
2022-10-30T00:23:39.228Z,12.30
2022-10-30T00:26:07.579Z,12.20
2022-10-30T00:28:34.706Z,12.20
2022-10-30T00:31:06.128Z,12.20
2022-10-30T00:33:33.314Z,12.20
2022-10-30T00:36:01.405Z,12.30
2022-10-30T00:38:28.407Z,12.30
2022-10-30T00:40:55.516Z,12.30
2022-10-30T00:43:37.727Z,12.30
2022-10-30T00:46:35.901Z,12.40
2022-10-30T00:49:16.703Z,12.50
2022-10-30T00:51:50.181Z,12.50
2022-10-30T00:54:18.791Z,12.50
2022-10-30T00:56:49.286Z,12.50
2022-10-30T00:59:23.419Z,12.50
2022-10-30T01:01:51.154Z,12.50
2022-10-30T01:04:18.888Z,12.50
2022-10-30T01:06:48.870Z,12.50
2022-10-30T01:09:16.412Z,12.50
2022-10-30T01:11:43.486Z,12.40
2022-10-30T01:14:13.292Z,12.30
2022-10-30T01:17:05.573Z,12.30
2022-10-30T01:20:26.764Z,12.30
2022-10-30T01:23:38.786Z,12.30
2022-10-30T01:26:20.116Z,12.30
2022-10-30T01:29:28.025Z,12.20
2022-10-30T01:32:13.521Z,12.20
2022-10-30T01:35:05.858Z,12.10
2022-10-30T01:37:42.860Z,12.10
2022-10-30T01:40:13.737Z,12.00
2022-10-30T01:42:52.836Z,11.90
2022-10-30T01:45:55.454Z,11.90
2022-10-30T01:48:52.581Z,11.90
2022-10-30T01:51:38.201Z,11.90
2022-10-30T01:54:22.418Z,11.80
2022-10-30T01:57:35.226Z,11.70
2022-10-30T02:00:08.772Z,11.70
2022-10-30T02:02:48.461Z,11.70
2022-10-30T02:05:39.050Z,11.70
2022-10-30T02:08:06.438Z,11.70
2022-10-30T02:10:38.438Z,11.60
2022-10-30T02:13:05.577Z,11.60
2022-10-30T02:15:33.883Z,11.70
2022-10-30T02:18:01.773Z,11.60
2022-10-30T02:20:29.197Z,11.60
2022-10-30T02:22:59.256Z,11.60
2022-10-30T02:25:31.864Z,11.60
2022-10-30T02:27:59.852Z,11.60
2022-10-30T02:30:30.549Z,11.60
2022-10-30T02:32:57.896Z,11.70
2022-10-30T02:35:25.306Z,11.70
2022-10-30T02:37:52.885Z,11.80
2022-10-30T02:40:19.932Z,11.80
2022-10-30T02:42:55.125Z,11.90
2022-10-30T02:45:22.545Z,12.00
2022-10-30T02:47:50.211Z,12.10
2022-10-30T02:50:17.678Z,12.10
2022-10-30T02:52:44.788Z,12.10
2022-10-30T02:55:12.494Z,12.20
2022-10-30T02:57:41.039Z,12.10
2022-10-30T03:00:09.193Z,12.20
2022-10-30T03:02:36.327Z,12.20
2022-10-30T03:05:04.373Z,12.20
2022-10-30T03:07:32.178Z,12.30
2022-10-30T03:09:59.278Z,12.30
2022-10-30T03:12:26.352Z,12.40
2022-10-30T03:14:53.421Z,12.40
2022-10-30T03:17:20.404Z,12.40
2022-10-30T03:19:49.355Z,12.50
2022-10-30T03:22:16.365Z,12.50
2022-10-30T03:24:43.521Z,12.50
2022-10-30T03:27:10.808Z,12.60
2022-10-30T03:29:40.124Z,12.60
2022-10-30T03:32:11.442Z,12.70
2022-10-30T03:34:47.778Z,12.60
2022-10-30T03:37:15.061Z,12.60
2022-10-30T03:39:42.092Z,12.60
2022-10-30T03:42:09.204Z,12.60
2022-10-30T03:44:36.218Z,12.70
2022-10-30T03:47:04.509Z,12.70
2022-10-30T03:49:39.472Z,12.70
2022-10-30T03:52:10.930Z,12.70
2022-10-30T03:54:37.991Z,12.70
2022-10-30T03:57:05.221Z,12.80
2022-10-30T03:59:41.803Z,12.80
2022-10-30T04:02:31.363Z,12.80
2022-10-30T04:04:58.611Z,12.80
2022-10-30T04:07:25.638Z,12.80
2022-10-30T04:09:53.435Z,12.80
2022-10-30T04:12:20.648Z,12.80
2022-10-30T04:14:47.896Z,12.70
2022-10-30T04:17:14.980Z,12.70
2022-10-30T04:19:42.086Z,12.60
2022-10-30T04:22:10.995Z,12.60
2022-10-30T04:24:39.664Z,12.60
2022-10-30T04:27:06.956Z,12.60
2022-10-30T04:29:34.257Z,12.60
2022-10-30T04:32:01.356Z,12.50
2022-10-30T04:34:29.133Z,12.50
2022-10-30T04:36:56.248Z,12.40
2022-10-30T04:39:23.339Z,12.40
2022-10-30T04:41:56.741Z,12.30
2022-10-30T04:44:31.041Z,12.30
2022-10-30T04:46:58.313Z,12.20
2022-10-30T04:49:25.318Z,12.20
2022-10-30T04:51:52.637Z,12.20
2022-10-30T04:54:22.952Z,12.10
2022-10-30T04:56:50.032Z,12.00
2022-10-30T04:59:17.198Z,12.00
2022-10-30T05:01:45.177Z,11.90
2022-10-30T05:04:12.304Z,11.90
2022-10-30T05:06:41.354Z,11.90
2022-10-30T05:09:08.381Z,11.80
2022-10-30T05:11:38.975Z,11.90
2022-10-30T05:14:06.842Z,11.90
2022-10-30T05:16:34.001Z,12.00
2022-10-30T05:19:03.439Z,12.00
2022-10-30T05:21:30.637Z,12.00
2022-10-30T05:23:58.852Z,12.00
2022-10-30T05:26:27.210Z,12.00
2022-10-30T05:28:54.949Z,12.00
2022-10-30T05:31:22.164Z,12.00
2022-10-30T05:34:07.785Z,12.00
2022-10-30T05:36:38.800Z,12.00
2022-10-30T05:39:06.323Z,12.10
2022-10-30T05:41:37.041Z,12.10
2022-10-30T05:44:04.670Z,12.10
2022-10-30T05:46:33.210Z,12.20
2022-10-30T05:49:14.271Z,12.20
2022-10-30T05:51:42.016Z,12.20
2022-10-30T05:54:11.314Z,12.20
2022-10-30T05:56:47.548Z,12.20
2022-10-30T05:59:14.692Z,12.10
2022-10-30T06:04:17.205Z,12.20
2022-10-30T06:06:44.257Z,12.30
2022-10-30T06:09:11.318Z,12.30
2022-10-30T06:12:03.606Z,12.30
2022-10-30T06:14:53.893Z,12.40
2022-10-30T06:17:21.133Z,12.30
2022-10-30T06:19:54.652Z,12.30
2022-10-30T06:22:42.047Z,12.40
2022-10-30T06:25:16.536Z,12.50
2022-10-30T06:27:58.931Z,12.50
2022-10-30T06:30:28.339Z,12.50
2022-10-30T06:33:04.354Z,12.60
2022-10-30T06:35:33.153Z,12.60
2022-10-30T06:38:00.940Z,12.60
2022-10-30T06:40:30.785Z,12.70
2022-10-30T06:43:00.786Z,12.80
2022-10-30T06:45:37.778Z,12.90
2022-10-30T06:48:05.087Z,13.00
2022-10-30T06:50:37.265Z,13.00
2022-10-30T06:53:04.300Z,13.00
2022-10-30T06:55:31.958Z,13.10
2022-10-30T06:58:11.953Z,13.10
2022-10-30T07:01:02.807Z,13.30
2022-10-30T07:03:33.560Z,13.40
2022-10-30T07:06:07.780Z,13.40
2022-10-30T07:08:35.194Z,13.40
2022-10-30T07:11:02.394Z,13.50
2022-10-30T07:14:01.785Z,13.70
2022-10-30T07:16:51.681Z,13.70
2022-10-30T07:19:18.741Z,13.70
2022-10-30T07:21:46.256Z,13.70
2022-10-30T07:24:13.281Z,13.80
2022-10-30T07:26:49.878Z,13.70
2022-10-30T07:29:38.198Z,13.90
2022-10-30T07:32:16.723Z,13.80
2022-10-30T07:34:50.201Z,13.90
2022-10-30T07:37:33.552Z,13.90
2022-10-30T07:40:12.804Z,14.10
2022-10-30T07:43:06.452Z,14.30
2022-10-30T07:45:33.730Z,14.50
2022-10-30T07:48:19.638Z,14.70
2022-10-30T07:50:56.371Z,14.80
2022-10-30T07:53:23.529Z,14.80
2022-10-30T07:55:51.002Z,14.70
2022-10-30T07:58:42.767Z,14.70
2022-10-30T08:01:30.793Z,14.70
2022-10-30T08:04:06.578Z,15.10
2022-10-30T08:06:33.692Z,15.00
2022-10-30T08:09:00.696Z,14.90
2022-10-30T08:11:28.749Z,14.80
2022-10-30T08:13:58.177Z,14.70
2022-10-30T08:16:25.577Z,14.80
2022-10-30T08:18:52.932Z,15.00
2022-10-30T08:21:23.855Z,15.10
2022-10-30T08:24:04.879Z,15.00
2022-10-30T08:26:35.408Z,15.00
2022-10-30T08:29:03.296Z,15.00
2022-10-30T08:31:31.434Z,15.00
2022-10-30T08:34:05.533Z,14.90
2022-10-30T08:36:32.642Z,14.90
2022-10-30T08:38:59.790Z,15.20
2022-10-30T08:41:41.141Z,15.30
2022-10-30T08:44:19.503Z,15.50
2022-10-30T08:47:06.452Z,15.70
2022-10-30T08:49:33.563Z,15.70
2022-10-30T08:52:02.205Z,15.80
2022-10-30T08:54:29.263Z,16.00
2022-10-30T08:56:56.357Z,16.00
2022-10-30T08:59:24.489Z,16.10
2022-10-30T09:01:53.877Z,16.30
2022-10-30T09:04:21.327Z,16.40
2022-10-30T09:06:54.421Z,16.60
2022-10-30T09:09:38.348Z,16.80
2022-10-30T09:12:06.770Z,16.80
2022-10-30T09:14:41.817Z,16.70
2022-10-30T09:17:10.606Z,16.90
2022-10-30T09:19:39.553Z,17.00
2022-10-30T09:22:07.190Z,17.20
2022-10-30T09:24:40.090Z,17.20
2022-10-30T09:27:42.825Z,17.20
2022-10-30T09:30:12.798Z,17.20
2022-10-30T09:32:44.360Z,17.10
2022-10-30T09:35:16.606Z,16.90
2022-10-30T09:37:44.980Z,16.90
2022-10-30T09:40:49.096Z,17.00
2022-10-30T09:44:06.861Z,16.90
2022-10-30T09:46:55.794Z,17.00
2022-10-30T09:49:42.703Z,17.30
2022-10-30T09:52:50.746Z,17.40
2022-10-30T09:55:34.926Z,17.60
2022-10-30T09:58:27.953Z,17.50
2022-10-30T10:01:22.925Z,17.70
2022-10-30T10:04:27.471Z,17.70
2022-10-30T10:07:31.267Z,18.10
2022-10-30T10:10:41.789Z,18.50
2022-10-30T10:13:52.006Z,18.70
2022-10-30T10:16:30.987Z,19.20
2022-10-30T10:19:04.574Z,19.50
2022-10-30T10:21:38.226Z,19.80
2022-10-30T10:24:39.191Z,19.70
2022-10-30T10:27:30.316Z,20.10
2022-10-30T10:30:10.393Z,20.10
2022-10-30T10:33:14.333Z,19.90
2022-10-30T10:35:59.313Z,19.80
2022-10-30T10:38:47.119Z,19.80
2022-10-30T10:41:48.563Z,20.00
2022-10-30T10:45:22.984Z,20.00
2022-10-30T10:48:18.046Z,20.10
2022-10-30T10:50:50.229Z,20.20
2022-10-30T10:53:38.846Z,20.20
2022-10-30T10:56:06.691Z,20.30
2022-10-30T10:58:48.075Z,20.20
2022-10-30T11:01:22.806Z,20.60
2022-10-30T11:04:05.959Z,21.10
2022-10-30T11:06:38.805Z,22.30
2022-10-30T11:09:38.563Z,23.30
2022-10-30T11:12:05.991Z,22.90
2022-10-30T11:14:32.944Z,22.90
2022-10-30T11:17:28.625Z,24.00
2022-10-30T11:20:02.087Z,25.10
2022-10-30T11:22:38.062Z,25.70
2022-10-30T11:25:33.169Z,26.50
2022-10-30T11:28:04.600Z,27.30
2022-10-30T11:30:32.889Z,28.40
2022-10-30T11:33:22.997Z,29.50
2022-10-30T11:35:50.005Z,29.80
2022-10-30T11:38:21.336Z,30.40
2022-10-30T11:40:52.867Z,30.60
2022-10-30T11:43:23.458Z,30.70
2022-10-30T11:45:51.601Z,31.30
2022-10-30T11:48:31.716Z,31.80
2022-10-30T11:51:03.875Z,32.00
2022-10-30T11:53:48.189Z,31.80
2022-10-30T11:56:19.520Z,32.70
2022-10-30T11:58:59.407Z,32.60
2022-10-30T12:01:33.409Z,32.90
2022-10-30T12:04:27.385Z,33.30
2022-10-30T12:07:08.676Z,33.70
2022-10-30T12:09:44.140Z,34.00
2022-10-30T12:12:20.244Z,34.20
2022-10-30T12:14:47.564Z,34.60
2022-10-30T12:17:16.643Z,34.70
2022-10-30T12:19:51.087Z,35.00
2022-10-30T12:22:33.451Z,34.60
2022-10-30T12:25:15.755Z,34.20
2022-10-30T12:27:42.794Z,33.90
2022-10-30T12:30:20.925Z,34.10
2022-10-30T12:33:14.049Z,34.80
2022-10-30T12:35:46.877Z,35.40
2022-10-30T12:38:38.367Z,35.40
2022-10-30T12:41:30.072Z,35.70
2022-10-30T12:44:08.600Z,34.20
2022-10-30T12:47:20.831Z,33.20
2022-10-30T12:50:30.191Z,33.80
2022-10-30T12:53:00.715Z,34.60
2022-10-30T12:55:49.911Z,34.80
2022-10-30T12:59:18.535Z,35.20
2022-10-30T13:01:55.999Z,34.80
2022-10-30T13:04:37.287Z,34.80
2022-10-30T13:08:04.726Z,34.60
2022-10-30T13:11:07.511Z,34.20
2022-10-30T13:13:40.768Z,34.50
2022-10-30T13:16:16.422Z,33.90
2022-10-30T13:18:43.484Z,33.70
2022-10-30T13:21:37.602Z,34.20
2022-10-30T13:24:14.867Z,34.30
2022-10-30T13:27:26.253Z,33.40
2022-10-30T13:30:19.634Z,33.80
2022-10-30T13:33:10.856Z,33.80
2022-10-30T13:36:11.169Z,34.30
2022-10-30T13:39:19.765Z,33.90
2022-10-30T13:41:52.580Z,34.20
2022-10-30T13:44:38.169Z,33.00
2022-10-30T13:47:42.668Z,32.30
2022-10-30T13:50:39.329Z,32.00
2022-10-30T13:53:15.019Z,32.50
2022-10-30T13:55:44.034Z,32.50
2022-10-30T13:58:25.402Z,33.00
2022-10-30T14:01:31.023Z,32.80
2022-10-30T14:04:49.231Z,33.50
2022-10-30T14:07:37.236Z,32.80
2022-10-30T14:10:23.066Z,31.90
2022-10-30T14:13:15.260Z,31.80
2022-10-30T14:15:45.722Z,32.00
2022-10-30T14:18:12.738Z,31.80
2022-10-30T14:20:51.233Z,31.60
2022-10-30T14:23:36.245Z,31.70
2022-10-30T14:26:03.658Z,31.00
2022-10-30T14:28:52.890Z,30.70
2022-10-30T14:31:33.790Z,29.60
2022-10-30T14:34:01.393Z,28.30
2022-10-30T14:36:34.693Z,27.00
2022-10-30T14:39:29.707Z,26.00
2022-10-30T14:42:25.109Z,25.20
2022-10-30T14:45:26.842Z,24.70
2022-10-30T14:48:33.226Z,24.10
2022-10-30T14:51:18.472Z,23.70
2022-10-30T14:54:37.084Z,23.20
2022-10-30T14:57:04.319Z,23.10
2022-10-30T14:59:34.453Z,22.70
2022-10-30T15:02:13.848Z,22.40
2022-10-30T15:05:26.843Z,22.10
2022-10-30T15:08:26.368Z,21.70
2022-10-30T15:11:43.932Z,21.40
2022-10-30T15:14:32.679Z,21.40
2022-10-30T15:17:29.352Z,21.10
2022-10-30T15:19:58.200Z,20.80
2022-10-30T15:22:28.908Z,20.50
2022-10-30T15:24:56.696Z,20.30
2022-10-30T15:27:25.813Z,20.00
2022-10-30T15:30:04.381Z,19.80
2022-10-30T15:32:31.416Z,19.60
2022-10-30T15:35:03.816Z,19.30
2022-10-30T15:37:32.429Z,19.10
2022-10-30T15:40:19.139Z,19.00
2022-10-30T15:42:49.050Z,18.80
2022-10-30T15:45:28.662Z,18.60
2022-10-30T15:48:26.175Z,18.50
2022-10-30T15:51:05.765Z,18.30
2022-10-30T15:53:46.875Z,18.10
2022-10-30T15:56:29.869Z,17.80
2022-10-30T15:59:16.581Z,17.70
2022-10-30T16:01:46.349Z,17.60
2022-10-30T16:04:16.910Z,17.40
2022-10-30T16:06:57.601Z,17.30
2022-10-30T16:09:27.691Z,17.10
2022-10-30T16:11:58.860Z,17.00
2022-10-30T16:14:32.737Z,17.00
2022-10-30T16:17:00.600Z,16.90
2022-10-30T16:19:39.823Z,16.90
2022-10-30T16:22:15.340Z,16.80
2022-10-30T16:24:42.856Z,16.70
2022-10-30T16:27:21.757Z,16.50
2022-10-30T16:30:00.326Z,16.50
2022-10-30T16:32:32.190Z,16.40
2022-10-30T16:35:01.737Z,16.40
2022-10-30T16:37:39.360Z,16.30
2022-10-30T16:40:28.349Z,16.20
2022-10-30T16:43:03.402Z,16.10
2022-10-30T16:45:33.961Z,16.00
2022-10-30T16:48:21.275Z,15.90
2022-10-30T16:50:49.490Z,15.80
2022-10-30T16:53:22.894Z,15.70
2022-10-30T16:55:51.388Z,15.60
2022-10-30T16:58:20.229Z,15.60
2022-10-30T17:01:03.371Z,15.40
2022-10-30T17:03:40.167Z,15.30
2022-10-30T17:06:41.988Z,15.10
2022-10-30T17:09:24.575Z,15.00
2022-10-30T17:12:10.925Z,15.00
2022-10-30T17:14:43.951Z,14.90
2022-10-30T17:17:30.753Z,14.90
2022-10-30T17:20:00.359Z,14.90
2022-10-30T17:22:28.125Z,14.90
2022-10-30T17:24:55.955Z,14.90
2022-10-30T17:27:28.964Z,14.80
2022-10-30T17:29:56.061Z,14.80
2022-10-30T17:32:43.424Z,14.80
2022-10-30T17:35:16.960Z,14.80
2022-10-30T17:37:44.262Z,14.80
2022-10-30T17:40:15.224Z,14.80
2022-10-30T17:42:42.468Z,14.70
2022-10-30T17:45:18.631Z,14.60
2022-10-30T17:47:45.842Z,14.60
2022-10-30T17:50:12.961Z,14.60
2022-10-30T17:52:40.105Z,14.70
2022-10-30T17:55:28.662Z,14.70
2022-10-30T17:57:55.753Z,14.70
2022-10-30T18:00:22.790Z,14.70
2022-10-30T18:02:49.909Z,14.70
2022-10-30T18:05:21.531Z,14.60
2022-10-30T18:10:20.518Z,14.60
2022-10-30T18:12:47.665Z,14.60
2022-10-30T18:15:39.241Z,14.50
2022-10-30T18:18:06.769Z,14.50
2022-10-30T18:20:34.160Z,14.50
2022-10-30T18:23:01.642Z,14.40
2022-10-30T18:25:35.892Z,14.40
2022-10-30T18:28:03.530Z,14.20
2022-10-30T18:30:30.975Z,14.20
2022-10-30T18:32:58.639Z,14.10
2022-10-30T18:35:36.430Z,14.00
2022-10-30T18:38:04.608Z,13.90
2022-10-30T18:40:32.652Z,13.80
2022-10-30T18:43:00.020Z,13.80
2022-10-30T18:45:37.883Z,13.70
2022-10-30T18:48:05.820Z,13.70
2022-10-30T18:50:33.124Z,13.60
2022-10-30T18:53:02.246Z,13.50
2022-10-30T18:55:36.547Z,13.50
2022-10-30T18:58:04.861Z,13.50
2022-10-30T19:00:44.918Z,13.40
2022-10-30T19:03:18.213Z,13.40
2022-10-30T19:05:51.013Z,13.40
2022-10-30T19:08:18.260Z,13.30
2022-10-30T19:10:47.535Z,13.20
2022-10-30T19:13:21.345Z,13.20
2022-10-30T19:16:00.162Z,13.20
2022-10-30T19:18:28.836Z,13.10
2022-10-30T19:21:04.517Z,13.10
2022-10-30T19:23:33.345Z,13.10
2022-10-30T19:26:00.616Z,13.10
2022-10-30T19:28:29.181Z,13.10
2022-10-30T19:30:56.196Z,13.10
2022-10-30T19:33:25.028Z,13.00
2022-10-30T19:36:01.170Z,12.90
2022-10-30T19:38:29.074Z,13.00
2022-10-30T19:40:56.198Z,12.90
2022-10-30T19:43:23.397Z,12.90
2022-10-30T19:45:56.869Z,12.90
2022-10-30T19:48:47.668Z,12.90
2022-10-30T19:51:12.073Z,12.90
2022-10-30T19:53:40.474Z,12.80
2022-10-30T19:56:10.454Z,12.80
2022-10-30T19:58:37.500Z,12.80
2022-10-30T20:01:04.761Z,12.70
2022-10-30T20:03:31.817Z,12.60
2022-10-30T20:05:58.912Z,12.50
2022-10-30T20:08:26.437Z,12.50
2022-10-30T20:11:02.261Z,12.40
2022-10-30T20:13:33.262Z,12.40
2022-10-30T20:16:03.419Z,12.40
2022-10-30T20:18:32.609Z,12.40
2022-10-30T20:21:02.817Z,12.30
2022-10-30T20:23:29.983Z,12.30
2022-10-30T20:26:04.456Z,12.40
2022-10-30T20:28:35.864Z,12.30
2022-10-30T20:31:03.612Z,12.30
2022-10-30T20:33:30.832Z,12.30
2022-10-30T20:35:58.184Z,12.30
2022-10-30T20:38:31.555Z,12.20
2022-10-30T20:41:04.120Z,12.20
2022-10-30T20:43:37.244Z,12.20
2022-10-30T20:46:07.424Z,12.10
2022-10-30T20:48:34.434Z,12.10
2022-10-30T20:51:02.310Z,12.10
2022-10-30T20:53:30.279Z,12.10
2022-10-30T20:55:57.650Z,12.00
2022-10-30T20:58:25.079Z,12.00
2022-10-30T21:00:55.609Z,12.00
2022-10-30T21:03:23.961Z,12.00
2022-10-30T21:06:00.330Z,12.00
2022-10-30T21:08:31.933Z,12.00
2022-10-30T21:11:04.561Z,11.90
2022-10-30T21:13:34.529Z,11.80
2022-10-30T21:16:04.324Z,11.80
2022-10-30T21:18:32.492Z,11.80
2022-10-30T21:21:08.305Z,11.80
2022-10-30T21:23:35.406Z,11.70
2022-10-30T21:26:05.943Z,11.70
2022-10-30T21:28:33.585Z,11.70
2022-10-30T21:31:07.076Z,11.60
2022-10-30T21:33:36.103Z,11.60
2022-10-30T21:36:15.337Z,11.60
2022-10-30T21:38:44.528Z,11.60
2022-10-30T21:41:15.032Z,11.50
2022-10-30T21:43:43.164Z,11.50
2022-10-30T21:46:12.881Z,11.50
2022-10-30T21:48:40.149Z,11.50
2022-10-30T21:51:19.988Z,11.40
2022-10-30T21:53:47.912Z,11.40
2022-10-30T21:56:29.888Z,11.40
2022-10-30T21:59:00.239Z,11.30
2022-10-30T22:01:30.392Z,11.30
2022-10-30T22:04:00.117Z,11.40
2022-10-30T22:06:27.407Z,11.30
2022-10-30T22:08:56.824Z,11.30
2022-10-30T22:11:27.502Z,11.30
2022-10-30T22:14:02.684Z,11.20
2022-10-30T22:16:32.633Z,11.20
2022-10-30T22:19:00.395Z,11.20
2022-10-30T22:21:27.940Z,11.20
2022-10-30T22:23:55.057Z,11.10
2022-10-30T22:26:23.648Z,11.10
2022-10-30T22:28:56.825Z,11.10
2022-10-30T22:31:26.376Z,11.10
2022-10-30T22:33:53.889Z,11.10
2022-10-30T22:36:32.560Z,11.10
2022-10-30T22:39:07.566Z,11.10
2022-10-30T22:41:37.568Z,11.00
2022-10-30T22:44:10.314Z,10.90
2022-10-30T22:46:37.766Z,10.90
2022-10-30T22:49:06.286Z,10.90
2022-10-30T22:51:36.514Z,10.90
2022-10-30T22:54:06.986Z,10.80
2022-10-30T22:56:36.199Z,10.80
2022-10-30T22:59:09.983Z,10.80
2022-10-30T23:01:39.065Z,10.80
2022-10-30T23:04:08.209Z,10.80
2022-10-30T23:06:36.034Z,10.80
2022-10-30T23:09:18.202Z,10.70
2022-10-30T23:11:45.459Z,10.70
2022-10-30T23:14:12.613Z,10.70
2022-10-30T23:16:39.711Z,10.70
2022-10-30T23:19:07.685Z,10.70
2022-10-30T23:21:34.686Z,10.70
2022-10-30T23:24:04.234Z,10.80
2022-10-30T23:26:34.585Z,10.70
2022-10-30T23:29:02.572Z,10.70
2022-10-30T23:31:39.937Z,10.70
2022-10-30T23:34:10.365Z,10.60
2022-10-30T23:36:37.918Z,10.60
2022-10-30T23:39:09.836Z,10.50
2022-10-30T23:41:36.874Z,10.50
2022-10-30T23:44:07.399Z,10.50
2022-10-30T23:46:35.711Z,10.50
2022-10-30T23:49:04.348Z,10.50
2022-10-30T23:51:32.429Z,10.50
2022-10-30T23:53:59.618Z,10.50
2022-10-30T23:56:26.773Z,10.50
2022-10-30T23:58:53.788Z,10.40
